sensor_id;sensor_type;location;lat;lon;timestamp;pressure;altitude;pressure_sealevel;temperature;humidity
53874;BME280;62246;50.938;4.058;2022-12-13T00:01:18;101275.84;;;-5.97;92.13
53874;BME280;62246;50.938;4.058;2022-12-13T00:03:43;101273.28;;;-6.07;92.60
53874;BME280;62246;50.938;4.058;2022-12-13T00:06:10;101277.56;;;-6.12;93.23
53874;BME280;62246;50.938;4.058;2022-12-13T00:08:37;101274.13;;;-6.14;93.46
53874;BME280;62246;50.938;4.058;2022-12-13T00:11:05;101268.13;;;-6.16;92.96
53874;BME280;62246;50.938;4.058;2022-12-13T00:13:32;101274.16;;;-6.22;93.52
53874;BME280;62246;50.938;4.058;2022-12-13T00:15:58;101277.56;;;-6.21;93.93
53874;BME280;62246;50.938;4.058;2022-12-13T00:18:25;101258.69;;;-6.22;93.78
53874;BME280;62246;50.938;4.058;2022-12-13T00:20:50;101255.22;;;-6.22;94.19
53874;BME280;62246;50.938;4.058;2022-12-13T00:23:16;101238.06;;;-6.29;93.58
53874;BME280;62246;50.938;4.058;2022-12-13T00:25:41;101254.34;;;-6.26;93.43
53874;BME280;62246;50.938;4.058;2022-12-13T00:28:07;101250.94;;;-6.31;93.91
53874;BME280;62246;50.938;4.058;2022-12-13T00:30:33;101254.38;;;-6.30;94.03
53874;BME280;62246;50.938;4.058;2022-12-13T00:32:58;101244.91;;;-6.30;94.23
53874;BME280;62246;50.938;4.058;2022-12-13T00:35:24;101244.94;;;-6.28;94.53
53874;BME280;62246;50.938;4.058;2022-12-13T00:37:49;101248.34;;;-6.23;95.13
53874;BME280;62246;50.938;4.058;2022-12-13T00:40:15;101250.06;;;-6.22;94.69
53874;BME280;62246;50.938;4.058;2022-12-13T00:42:40;101244.06;;;-6.21;93.77
53874;BME280;62246;50.938;4.058;2022-12-13T00:45:06;101242.34;;;-6.16;93.85
53874;BME280;62246;50.938;4.058;2022-12-13T00:47:32;101235.47;;;-6.17;94.17
53874;BME280;62246;50.938;4.058;2022-12-13T00:49:57;101237.19;;;-6.17;93.55
53874;BME280;62246;50.938;4.058;2022-12-13T00:52:23;101238.06;;;-6.18;94.26
53874;BME280;62246;50.938;4.058;2022-12-13T00:54:48;101237.19;;;-6.16;94.54
53874;BME280;62246;50.938;4.058;2022-12-13T00:57:14;101232.91;;;-6.11;94.74
53874;BME280;62246;50.938;4.058;2022-12-13T00:59:39;101228.59;;;-6.12;94.44
53874;BME280;62246;50.938;4.058;2022-12-13T01:02:04;101223.44;;;-6.12;94.57
53874;BME280;62246;50.938;4.058;2022-12-13T01:04:30;101223.47;;;-6.15;94.74
53874;BME280;62246;50.938;4.058;2022-12-13T01:06:55;101229.47;;;-6.10;93.65
53874;BME280;62246;50.938;4.058;2022-12-13T01:09:25;101213.13;;;-6.16;94.05
53874;BME280;62246;50.938;4.058;2022-12-13T01:12:02;101214.00;;;-6.19;93.94
53874;BME280;62246;50.938;4.058;2022-12-13T01:14:29;101220.88;;;-6.15;94.24
53874;BME280;62246;50.938;4.058;2022-12-13T01:16:54;101220.03;;;-6.20;94.78
53874;BME280;62246;50.938;4.058;2022-12-13T01:19:24;101220.00;;;-6.18;94.95
53874;BME280;62246;50.938;4.058;2022-12-13T01:21:54;101207.97;;;-6.18;94.72
53874;BME280;62246;50.938;4.058;2022-12-13T01:24:19;101210.56;;;-6.21;94.65
53874;BME280;62246;50.938;4.058;2022-12-13T01:26:47;101223.44;;;-6.18;95.00
53874;BME280;62246;50.938;4.058;2022-12-13T01:29:12;101220.00;;;-6.17;94.42
53874;BME280;62246;50.938;4.058;2022-12-13T01:31:38;101214.88;;;-6.12;94.26
53874;BME280;62246;50.938;4.058;2022-12-13T01:34:07;101214.88;;;-6.09;94.89
53874;BME280;62246;50.938;4.058;2022-12-13T01:36:35;101211.41;;;-6.05;94.20
53874;BME280;62246;50.938;4.058;2022-12-13T01:39:00;101216.56;;;-6.04;94.56
53874;BME280;62246;50.938;4.058;2022-12-13T01:41:27;101215.72;;;-6.04;94.11
53874;BME280;62246;50.938;4.058;2022-12-13T01:43:54;101211.41;;;-6.02;93.91
53874;BME280;62246;50.938;4.058;2022-12-13T01:46:21;101216.59;;;-5.99;93.67
53874;BME280;62246;50.938;4.058;2022-12-13T01:48:53;101213.09;;;-5.90;93.16
53874;BME280;62246;50.938;4.058;2022-12-13T01:51:25;101208.81;;;-5.91;92.78
53874;BME280;62246;50.938;4.058;2022-12-13T01:53:52;101214.84;;;-5.98;93.11
53874;BME280;62246;50.938;4.058;2022-12-13T01:56:22;101206.25;;;-6.14;92.86
53874;BME280;62246;50.938;4.058;2022-12-13T01:58:53;101211.41;;;-6.22;93.53
53874;BME280;62246;50.938;4.058;2022-12-13T02:01:20;101214.84;;;-6.23;93.27
53874;BME280;62246;50.938;4.058;2022-12-13T02:03:46;101211.44;;;-6.28;93.91
53874;BME280;62246;50.938;4.058;2022-12-13T02:06:16;101212.28;;;-6.20;92.89
53874;BME280;62246;50.938;4.058;2022-12-13T02:08:44;101205.41;;;-6.21;91.98
53874;BME280;62246;50.938;4.058;2022-12-13T02:11:11;101208.84;;;-6.13;92.11
53874;BME280;62246;50.938;4.058;2022-12-13T02:13:37;101212.28;;;-6.08;91.97
53874;BME280;62246;50.938;4.058;2022-12-13T02:24:47;101208.84;;;-6.08;91.82
53874;BME280;62246;50.938;4.058;2022-12-13T02:33:05;101198.53;;;-6.24;94.05
53874;BME280;62246;50.938;4.058;2022-12-13T02:36:05;101202.81;;;-6.26;92.50
53874;BME280;62246;50.938;4.058;2022-12-13T02:43:35;101193.38;;;-6.30;91.75
53874;BME280;62246;50.938;4.058;2022-12-13T02:46:04;101189.97;;;-6.24;91.78
53874;BME280;62246;50.938;4.058;2022-12-13T02:48:36;101181.34;;;-6.37;92.19
53874;BME280;62246;50.938;4.058;2022-12-13T02:51:03;101177.91;;;-6.48;93.13
53874;BME280;62246;50.938;4.058;2022-12-13T02:53:30;101177.03;;;-6.54;93.58
53874;BME280;62246;50.938;4.058;2022-12-13T02:55:56;101181.34;;;-6.46;93.55
53874;BME280;62246;50.938;4.058;2022-12-13T02:58:26;101189.91;;;-6.46;93.07
53874;BME280;62246;50.938;4.058;2022-12-13T03:07:07;101168.47;;;-6.43;91.94
53874;BME280;62246;50.938;4.058;2022-12-13T03:09:48;101178.78;;;-6.34;91.74
53874;BME280;62246;50.938;4.058;2022-12-13T03:12:36;101175.31;;;-6.30;90.78
53874;BME280;62246;50.938;4.058;2022-12-13T03:18:05;101175.31;;;-6.39;92.05
53874;BME280;62246;50.938;4.058;2022-12-13T03:20:43;101173.63;;;-6.36;91.21
53874;BME280;62246;50.938;4.058;2022-12-13T03:23:10;101162.44;;;-6.50;92.14
53874;BME280;62246;50.938;4.058;2022-12-13T03:25:35;101176.19;;;-6.53;93.30
53874;BME280;62246;50.938;4.058;2022-12-13T03:28:01;101174.47;;;-6.60;93.83
53874;BME280;62246;50.938;4.058;2022-12-13T03:30:27;101179.63;;;-6.50;93.53
53874;BME280;62246;50.938;4.058;2022-12-13T03:32:52;101177.06;;;-6.52;91.98
53874;BME280;62246;50.938;4.058;2022-12-13T03:35:18;101178.78;;;-6.48;91.65
53874;BME280;62246;50.938;4.058;2022-12-13T03:37:44;101183.94;;;-6.40;90.61
53874;BME280;62246;50.938;4.058;2022-12-13T03:40:10;101165.88;;;-6.42;90.33
53874;BME280;62246;50.938;4.058;2022-12-13T03:42:35;101155.59;;;-6.49;91.88
53874;BME280;62246;50.938;4.058;2022-12-13T03:45:01;101154.72;;;-6.47;92.40
53874;BME280;62246;50.938;4.058;2022-12-13T03:47:26;101155.56;;;-6.51;92.16
53874;BME280;62246;50.938;4.058;2022-12-13T03:49:52;101158.16;;;-6.53;92.38
53874;BME280;62246;50.938;4.058;2022-12-13T03:52:17;101165.88;;;-6.60;92.11
53874;BME280;62246;50.938;4.058;2022-12-13T03:54:43;101162.44;;;-6.70;92.29
53874;BME280;62246;50.938;4.058;2022-12-13T03:57:08;101145.25;;;-6.71;92.41
53874;BME280;62246;50.938;4.058;2022-12-13T03:59:34;101165.88;;;-6.65;92.14
53874;BME280;62246;50.938;4.058;2022-12-13T04:01:59;101152.97;;;-6.73;93.02
53874;BME280;62246;50.938;4.058;2022-12-13T04:04:24;101162.41;;;-6.65;92.89
53874;BME280;62246;50.938;4.058;2022-12-13T04:06:50;101167.56;;;-6.67;92.25
53874;BME280;62246;50.938;4.058;2022-12-13T04:09:16;101158.16;;;-6.65;91.85
53874;BME280;62246;50.938;4.058;2022-12-13T04:11:41;101167.59;;;-6.62;91.97
53874;BME280;62246;50.938;4.058;2022-12-13T04:14:25;101147.84;;;-6.65;91.94
53874;BME280;62246;50.938;4.058;2022-12-13T04:16:50;101153.00;;;-6.60;91.97
53874;BME280;62246;50.938;4.058;2022-12-13T04:19:16;101159.00;;;-6.66;92.61
53874;BME280;62246;50.938;4.058;2022-12-13T04:21:42;101152.97;;;-6.73;93.30
53874;BME280;62246;50.938;4.058;2022-12-13T04:24:07;101169.31;;;-6.66;92.73
53874;BME280;62246;50.938;4.058;2022-12-13T04:26:33;101157.25;;;-6.75;92.83
53874;BME280;62246;50.938;4.058;2022-12-13T04:28:58;101146.09;;;-6.81;93.25
53874;BME280;62246;50.938;4.058;2022-12-13T04:31:24;101153.84;;;-6.69;92.27
53874;BME280;62246;50.938;4.058;2022-12-13T04:33:49;101154.69;;;-6.68;92.96
53874;BME280;62246;50.938;4.058;2022-12-13T04:36:15;101139.25;;;-6.68;92.02
53874;BME280;62246;50.938;4.058;2022-12-13T04:38:45;101146.97;;;-6.67;92.32
53874;BME280;62246;50.938;4.058;2022-12-13T04:41:18;101147.84;;;-6.62;90.04
53874;BME280;62246;50.938;4.058;2022-12-13T04:43:44;101150.44;;;-6.68;90.99
53874;BME280;62246;50.938;4.058;2022-12-13T04:46:09;101143.56;;;-6.67;90.56
53874;BME280;62246;50.938;4.058;2022-12-13T04:48:35;101145.28;;;-6.65;91.08
53874;BME280;62246;50.938;4.058;2022-12-13T04:51:01;101145.25;;;-6.70;91.33
53874;BME280;62246;50.938;4.058;2022-12-13T04:53:29;101138.38;;;-6.81;91.44
53874;BME280;62246;50.938;4.058;2022-12-13T04:55:55;101138.38;;;-6.88;92.11
53874;BME280;62246;50.938;4.058;2022-12-13T04:58:20;101134.94;;;-6.79;90.70
53874;BME280;62246;50.938;4.058;2022-12-13T05:00:46;101141.84;;;-6.72;90.30
53874;BME280;62246;50.938;4.058;2022-12-13T05:03:11;101146.13;;;-6.69;91.58
53874;BME280;62246;50.938;4.058;2022-12-13T05:05:40;101144.41;;;-6.65;90.99
53874;BME280;62246;50.938;4.058;2022-12-13T05:08:06;101135.78;;;-6.81;92.24
53874;BME280;62246;50.938;4.058;2022-12-13T05:10:32;101125.50;;;-6.83;91.51
53874;BME280;62246;50.938;4.058;2022-12-13T05:12:58;101128.09;;;-6.78;90.76
53874;BME280;62246;50.938;4.058;2022-12-13T05:15:23;101141.81;;;-6.75;90.99
53874;BME280;62246;50.938;4.058;2022-12-13T05:17:49;101140.09;;;-6.83;92.15
53874;BME280;62246;50.938;4.058;2022-12-13T05:20:15;101144.38;;;-6.78;91.17
53874;BME280;62246;50.938;4.058;2022-12-13T05:22:40;101137.53;;;-6.82;92.21
53874;BME280;62246;50.938;4.058;2022-12-13T05:25:06;101134.06;;;-6.95;92.72
53874;BME280;62246;50.938;4.058;2022-12-13T05:27:32;101139.22;;;-6.93;93.27
53874;BME280;62246;50.938;4.058;2022-12-13T05:29:57;101145.22;;;-6.94;93.63
53874;BME280;62246;50.938;4.058;2022-12-13T05:32:24;101146.06;;;-7.01;92.88
53874;BME280;62246;50.938;4.058;2022-12-13T05:34:49;101136.63;;;-6.99;92.16
53874;BME280;62246;50.938;4.058;2022-12-13T05:37:15;101146.94;;;-6.99;91.90
53874;BME280;62246;50.938;4.058;2022-12-13T05:39:40;101153.81;;;-6.97;92.09
53874;BME280;62246;50.938;4.058;2022-12-13T05:42:06;101146.94;;;-7.01;92.40
53874;BME280;62246;50.938;4.058;2022-12-13T05:44:31;101139.19;;;-7.03;91.80
53874;BME280;62246;50.938;4.058;2022-12-13T05:46:57;101130.66;;;-6.97;91.51
53874;BME280;62246;50.938;4.058;2022-12-13T05:49:23;101132.31;;;-7.10;92.19
53874;BME280;62246;50.938;4.058;2022-12-13T05:51:49;101139.19;;;-7.09;91.19
53874;BME280;62246;50.938;4.058;2022-12-13T05:54:14;101134.91;;;-7.08;91.57
53874;BME280;62246;50.938;4.058;2022-12-13T05:56:40;101129.72;;;-7.14;91.88
53874;BME280;62246;50.938;4.058;2022-12-13T05:59:05;101127.16;;;-7.22;92.87
53874;BME280;62246;50.938;4.058;2022-12-13T06:01:31;101128.00;;;-7.25;93.44
53874;BME280;62246;50.938;4.058;2022-12-13T06:03:56;101134.03;;;-7.15;92.09
53874;BME280;62246;50.938;4.058;2022-12-13T06:06:21;101122.03;;;-7.13;92.54
53874;BME280;62246;50.938;4.058;2022-12-13T06:08:47;101122.03;;;-7.13;91.80
53874;BME280;62246;50.938;4.058;2022-12-13T06:11:12;101127.16;;;-7.19;91.81
53874;BME280;62246;50.938;4.058;2022-12-13T06:13:43;101142.63;;;-7.10;90.96
53874;BME280;62246;50.938;4.058;2022-12-13T06:16:11;101146.03;;;-7.14;91.00
53874;BME280;62246;50.938;4.058;2022-12-13T06:18:37;101144.28;;;-7.24;91.09
53874;BME280;62246;50.938;4.058;2022-12-13T06:21:05;101142.56;;;-7.31;91.57
53874;BME280;62246;50.938;4.058;2022-12-13T06:23:32;101141.72;;;-7.23;90.18
53874;BME280;62246;50.938;4.058;2022-12-13T06:26:01;101135.72;;;-7.23;90.26
53874;BME280;62246;50.938;4.058;2022-12-13T06:28:27;101135.69;;;-7.34;90.82
53874;BME280;62246;50.938;4.058;2022-12-13T06:30:52;101122.78;;;-7.40;90.98
53874;BME280;62246;50.938;4.058;2022-12-13T06:33:19;101133.97;;;-7.37;91.44
53874;BME280;62246;50.938;4.058;2022-12-13T06:35:45;101121.09;;;-7.37;91.69
53874;BME280;62246;50.938;4.058;2022-12-13T06:38:11;101120.25;;;-7.32;91.26
53874;BME280;62246;50.938;4.058;2022-12-13T06:40:38;101134.81;;;-7.33;91.25
53874;BME280;62246;50.938;4.058;2022-12-13T06:43:03;101134.00;;;-7.24;91.30
53874;BME280;62246;50.938;4.058;2022-12-13T06:45:29;101122.84;;;-7.17;89.66
53874;BME280;62246;50.938;4.058;2022-12-13T06:47:55;101124.59;;;-7.08;89.69
53874;BME280;62246;50.938;4.058;2022-12-13T06:50:21;101121.19;;;-7.07;88.59
53874;BME280;62246;50.938;4.058;2022-12-13T06:52:47;101122.06;;;-7.04;88.15
53874;BME280;62246;50.938;4.058;2022-12-13T06:55:13;101118.59;;;-7.03;90.30
53874;BME280;62246;50.938;4.058;2022-12-13T06:57:38;101121.19;;;-7.09;90.61
53874;BME280;62246;50.938;4.058;2022-12-13T07:00:04;101113.41;;;-7.24;91.94
53874;BME280;62246;50.938;4.058;2022-12-13T07:02:30;101124.56;;;-7.21;90.56
53874;BME280;62246;50.938;4.058;2022-12-13T07:04:56;101134.00;;;-7.26;91.77
53874;BME280;62246;50.938;4.058;2022-12-13T07:07:22;101133.16;;;-7.23;90.27
53874;BME280;62246;50.938;4.058;2022-12-13T07:09:48;101128.88;;;-7.18;89.64
53874;BME280;62246;50.938;4.058;2022-12-13T07:12:14;101136.59;;;-7.13;89.36
53874;BME280;62246;50.938;4.058;2022-12-13T07:14:40;101123.72;;;-7.20;90.33
53874;BME280;62246;50.938;4.058;2022-12-13T07:17:08;101127.09;;;-7.33;90.90
53874;BME280;62246;50.938;4.058;2022-12-13T07:19:35;101129.69;;;-7.31;90.62
53874;BME280;62246;50.938;4.058;2022-12-13T07:22:00;101134.00;;;-7.21;90.33
53874;BME280;62246;50.938;4.058;2022-12-13T07:24:26;101136.56;;;-7.23;90.86
53874;BME280;62246;50.938;4.058;2022-12-13T07:26:51;101141.69;;;-7.32;91.33
53874;BME280;62246;50.938;4.058;2022-12-13T07:29:17;101138.25;;;-7.29;91.72
53874;BME280;62246;50.938;4.058;2022-12-13T07:31:42;101145.13;;;-7.30;91.53
53874;BME280;62246;50.938;4.058;2022-12-13T07:34:08;101145.97;;;-7.32;90.27
53874;BME280;62246;50.938;4.058;2022-12-13T07:36:33;101145.13;;;-7.27;90.45
53874;BME280;62246;50.938;4.058;2022-12-13T07:38:59;101148.53;;;-7.28;90.99
53874;BME280;62246;50.938;4.058;2022-12-13T07:41:25;101145.97;;;-7.34;91.14
53874;BME280;62246;50.938;4.058;2022-12-13T07:43:52;101155.38;;;-7.36;91.50
53874;BME280;62246;50.938;4.058;2022-12-13T07:46:17;101153.66;;;-7.36;91.55
53874;BME280;62246;50.938;4.058;2022-12-13T07:48:43;101151.97;;;-7.35;91.46
53874;BME280;62246;50.938;4.058;2022-12-13T07:51:09;101139.09;;;-7.37;91.50
53874;BME280;62246;50.938;4.058;2022-12-13T07:53:38;101155.38;;;-7.34;92.12
53874;BME280;62246;50.938;4.058;2022-12-13T07:56:06;101152.88;;;-7.22;91.04
53874;BME280;62246;50.938;4.058;2022-12-13T07:58:32;101155.44;;;-7.16;91.65
53874;BME280;62246;50.938;4.058;2022-12-13T08:01:06;101157.19;;;-7.20;92.47
53874;BME280;62246;50.938;4.058;2022-12-13T08:03:36;101170.91;;;-7.05;92.40
53874;BME280;62246;50.938;4.058;2022-12-13T08:06:06;101170.09;;;-6.98;92.05
53874;BME280;62246;50.938;4.058;2022-12-13T08:08:33;101173.53;;;-6.88;92.35
53874;BME280;62246;50.938;4.058;2022-12-13T08:11:03;101173.56;;;-6.83;91.67
53874;BME280;62246;50.938;4.058;2022-12-13T08:13:29;101171.84;;;-6.72;91.62
53874;BME280;62246;50.938;4.058;2022-12-13T08:16:02;101179.63;;;-6.61;91.52
53874;BME280;62246;50.938;4.058;2022-12-13T08:18:28;101164.16;;;-6.63;91.65
53874;BME280;62246;50.938;4.058;2022-12-13T08:21:01;101175.31;;;-6.50;91.67
53874;BME280;62246;50.938;4.058;2022-12-13T08:23:29;101163.31;;;-6.42;91.71
53874;BME280;62246;50.938;4.058;2022-12-13T08:25:55;101168.47;;;-6.39;91.85
53874;BME280;62246;50.938;4.058;2022-12-13T08:28:21;101173.63;;;-6.32;92.53
53874;BME280;62246;50.938;4.058;2022-12-13T08:30:47;101173.63;;;-6.28;92.78
53874;BME280;62246;50.938;4.058;2022-12-13T08:33:13;101170.19;;;-6.17;92.66
53874;BME280;62246;50.938;4.058;2022-12-13T08:35:39;101171.91;;;-6.03;91.96
53874;BME280;62246;50.938;4.058;2022-12-13T08:38:04;101168.44;;;-6.00;92.08
53874;BME280;62246;50.938;4.058;2022-12-13T08:40:30;101185.59;;;-5.94;91.97
53874;BME280;62246;50.938;4.058;2022-12-13T08:42:56;101184.75;;;-5.93;92.79
53874;BME280;62246;50.938;4.058;2022-12-13T08:45:22;101183.03;;;-5.90;92.82
53874;BME280;62246;50.938;4.058;2022-12-13T08:47:51;101190.75;;;-5.82;93.12
53874;BME280;62246;50.938;4.058;2022-12-13T08:50:17;101183.88;;;-5.75;93.25
53874;BME280;62246;50.938;4.058;2022-12-13T08:52:43;101179.50;;;-5.62;93.61
53874;BME280;62246;50.938;4.058;2022-12-13T08:55:13;101167.44;;;-5.56;93.46
53874;BME280;62246;50.938;4.058;2022-12-13T08:57:41;101179.44;;;-5.31;93.77
53874;BME280;62246;50.938;4.058;2022-12-13T09:00:09;101178.47;;;-5.09;93.29
53874;BME280;62246;50.938;4.058;2022-12-13T09:02:36;101171.47;;;-4.90;93.04
53874;BME280;62246;50.938;4.058;2022-12-13T09:05:01;101167.97;;;-4.78;93.14
53874;BME280;62246;50.938;4.058;2022-12-13T09:07:28;101173.06;;;-4.67;92.61
53874;BME280;62246;50.938;4.058;2022-12-13T09:09:53;101171.25;;;-4.53;92.36
53874;BME280;62246;50.938;4.058;2022-12-13T09:12:19;101160.03;;;-4.48;92.22
53874;BME280;62246;50.938;4.058;2022-12-13T09:14:45;101165.06;;;-4.30;91.95
53874;BME280;62246;50.938;4.058;2022-12-13T09:17:14;101158.00;;;-4.15;91.65
53874;BME280;62246;50.938;4.058;2022-12-13T09:19:39;101168.19;;;-3.97;91.21
53874;BME280;62246;50.938;4.058;2022-12-13T09:22:05;101168.94;;;-3.84;91.40
53874;BME280;62246;50.938;4.058;2022-12-13T09:24:30;101177.41;;;-3.68;91.05
53874;BME280;62246;50.938;4.058;2022-12-13T09:26:56;101171.19;;;-3.52;90.81
53874;BME280;62246;50.938;4.058;2022-12-13T09:29:21;101170.16;;;-3.37;90.44
53874;BME280;62246;50.938;4.058;2022-12-13T09:31:47;101167.41;;;-3.24;89.23
53874;BME280;62246;50.938;4.058;2022-12-13T09:34:13;101159.56;;;-3.18;88.82
53874;BME280;62246;50.938;4.058;2022-12-13T09:36:38;101157.72;;;-3.07;88.70
53874;BME280;62246;50.938;4.058;2022-12-13T09:39:03;101153.22;;;-2.95;88.65
53874;BME280;62246;50.938;4.058;2022-12-13T09:41:50;101139.34;;;-2.90;88.47
53874;BME280;62246;50.938;4.058;2022-12-13T09:44:22;101143.53;;;-2.81;87.44
53874;BME280;62246;50.938;4.058;2022-12-13T09:46:49;101149.44;;;-2.73;87.46
53874;BME280;62246;50.938;4.058;2022-12-13T09:49:40;101164.00;;;-2.62;86.95
53874;BME280;62246;50.938;4.058;2022-12-13T09:52:13;101159.69;;;-2.62;86.46
53874;BME280;62246;50.938;4.058;2022-12-13T09:54:39;101149.41;;;-2.70;85.83
53874;BME280;62246;50.938;4.058;2022-12-13T09:57:18;101153.59;;;-2.61;86.93
53874;BME280;62246;50.938;4.058;2022-12-13T09:59:46;101150.06;;;-2.55;87.25
53874;BME280;62246;50.938;4.058;2022-12-13T10:02:20;101137.94;;;-2.55;86.46
53874;BME280;62246;50.938;4.058;2022-12-13T10:04:47;101136.97;;;-2.46;86.45
53874;BME280;62246;50.938;4.058;2022-12-13T10:07:18;101133.47;;;-2.43;86.65
53874;BME280;62246;50.938;4.058;2022-12-13T10:09:46;101127.25;;;-2.35;86.77
53874;BME280;62246;50.938;4.058;2022-12-13T10:12:14;101126.19;;;-2.23;86.59
53874;BME280;62246;50.938;4.058;2022-12-13T10:14:50;101133.84;;;-2.15;85.22
53874;BME280;62246;50.938;4.058;2022-12-13T10:17:21;101125.06;;;-2.08;84.51
53874;BME280;62246;50.938;4.058;2022-12-13T10:19:50;101125.03;;;-2.05;85.02
53874;BME280;62246;50.938;4.058;2022-12-13T10:22:18;101124.94;;;-2.02;84.71
53874;BME280;62246;50.938;4.058;2022-12-13T10:24:58;101117.03;;;-1.94;83.92
53874;BME280;62246;50.938;4.058;2022-12-13T10:27:36;101115.09;;;-1.82;85.28
53874;BME280;62246;50.938;4.058;2022-12-13T10:32:56;101104.44;;;-1.69;84.85
53874;BME280;62246;50.938;4.058;2022-12-13T10:35:32;101103.50;;;-1.64;82.80
53874;BME280;62246;50.938;4.058;2022-12-13T10:38:14;101107.06;;;-0.87;81.04
53874;BME280;62246;50.938;4.058;2022-12-13T10:40:45;101101.22;;;0.08;76.84
53874;BME280;62246;50.938;4.058;2022-12-13T10:43:19;101110.50;;;0.17;75.48
53874;BME280;62246;50.938;4.058;2022-12-13T10:45:56;101103.19;;;-0.35;76.87
53874;BME280;62246;50.938;4.058;2022-12-13T10:48:46;101090.16;;;1.46;71.50
53874;BME280;62246;50.938;4.058;2022-12-13T10:51:18;101086.78;;;2.67;65.37
53874;BME280;62246;50.938;4.058;2022-12-13T10:56:11;101094.03;;;3.27;64.57
53874;BME280;62246;50.938;4.058;2022-12-13T10:58:42;101085.06;;;2.19;65.12
53874;BME280;62246;50.938;4.058;2022-12-13T11:01:29;101090.56;;;1.06;68.37
53874;BME280;62246;50.938;4.058;2022-12-13T11:04:05;101086.47;;;1.25;68.52
53874;BME280;62246;50.938;4.058;2022-12-13T11:06:46;101079.03;;;1.66;67.46
53874;BME280;62246;50.938;4.058;2022-12-13T11:09:25;101069.78;;;1.58;68.09
53874;BME280;62246;50.938;4.058;2022-12-13T11:11:53;101077.72;;;2.76;64.59
53874;BME280;62246;50.938;4.058;2022-12-13T11:14:23;101063.63;;;3.25;63.54
53874;BME280;62246;50.938;4.058;2022-12-13T11:16:57;101057.84;;;3.16;62.49
53874;BME280;62246;50.938;4.058;2022-12-13T11:19:55;101047.41;;;3.37;61.31
53874;BME280;62246;50.938;4.058;2022-12-13T11:22:25;101054.06;;;3.24;61.44
53874;BME280;62246;50.938;4.058;2022-12-13T11:25:03;101057.25;;;3.73;59.92
53874;BME280;62246;50.938;4.058;2022-12-13T11:27:36;101055.59;;;4.31;59.49
53874;BME280;62246;50.938;4.058;2022-12-13T11:30:18;101037.28;;;4.50;57.00
53874;BME280;62246;50.938;4.058;2022-12-13T11:41:36;101024.69;;;2.27;64.37
53874;BME280;62246;50.938;4.058;2022-12-13T11:44:12;101025.09;;;1.92;64.71
53874;BME280;62246;50.938;4.058;2022-12-13T11:46:43;101030.84;;;1.77;66.93
53874;BME280;62246;50.938;4.058;2022-12-13T11:49:17;101020.91;;;1.63;66.67
53874;BME280;62246;50.938;4.058;2022-12-13T11:51:50;101013.84;;;1.65;66.99
53874;BME280;62246;50.938;4.058;2022-12-13T11:54:47;101001.63;;;1.67;66.86
53874;BME280;62246;50.938;4.058;2022-12-13T12:02:41;100993.09;;;1.62;67.57
53874;BME280;62246;50.938;4.058;2022-12-13T12:05:33;101004.22;;;1.67;68.26
53874;BME280;62246;50.938;4.058;2022-12-13T12:08:19;100993.56;;;1.48;68.10
53874;BME280;62246;50.938;4.058;2022-12-13T12:10:46;100997.75;;;1.52;67.65
53874;BME280;62246;50.938;4.058;2022-12-13T12:13:23;100987.31;;;1.52;67.22
53874;BME280;62246;50.938;4.058;2022-12-13T12:16:05;100977.63;;;1.30;67.31
53874;BME280;62246;50.938;4.058;2022-12-13T12:18:32;100983.13;;;1.48;67.18
53874;BME280;62246;50.938;4.058;2022-12-13T12:26:50;100979.66;;;1.47;68.01
53874;BME280;62246;50.938;4.058;2022-12-13T12:32:08;100978.06;;;0.91;69.53
53874;BME280;62246;50.938;4.058;2022-12-13T12:34:55;100971.88;;;0.94;69.73
53874;BME280;62246;50.938;4.058;2022-12-13T12:45:52;100945.56;;;1.28;69.10
53874;BME280;62246;50.938;4.058;2022-12-13T12:57:08;100942.97;;;1.52;67.90
53874;BME280;62246;50.938;4.058;2022-12-13T12:59:43;100936.28;;;1.45;68.30
53874;BME280;62246;50.938;4.058;2022-12-13T13:02:22;100934.44;;;1.23;68.11
53874;BME280;62246;50.938;4.058;2022-12-13T13:04:56;100930.88;;;1.24;68.53
53874;BME280;62246;50.938;4.058;2022-12-13T13:07:28;100931.38;;;1.36;67.92
53874;BME280;62246;50.938;4.058;2022-12-13T13:09:57;100927.19;;;1.31;68.58
53874;BME280;62246;50.938;4.058;2022-12-13T13:12:24;100922.75;;;1.33;68.89
53874;BME280;62246;50.938;4.058;2022-12-13T13:14:50;100924.19;;;1.17;67.81
53874;BME280;62246;50.938;4.058;2022-12-13T13:27:42;100922.84;;;0.53;70.25
53874;BME280;62246;50.938;4.058;2022-12-13T13:30:20;100910.88;;;0.46;71.22
53874;BME280;62246;50.938;4.058;2022-12-13T13:32:48;100912.66;;;0.45;70.98
53874;BME280;62246;50.938;4.058;2022-12-13T13:37:52;100899.91;;;0.36;72.14
53874;BME280;62246;50.938;4.058;2022-12-13T13:40:31;100906.25;;;0.27;72.10
53874;BME280;62246;50.938;4.058;2022-12-13T13:48:29;100884.28;;;0.08;73.43
53874;BME280;62246;50.938;4.058;2022-12-13T13:57:13;100888.91;;;-0.02;73.83
53874;BME280;62246;50.938;4.058;2022-12-13T14:13:46;100875.13;;;-0.06;73.60
53874;BME280;62246;50.938;4.058;2022-12-13T14:16:27;100876.97;;;-0.08;73.73
53874;BME280;62246;50.938;4.058;2022-12-13T14:22:14;100876.28;;;-0.14;73.01
53874;BME280;62246;50.938;4.058;2022-12-13T14:24:50;100876.50;;;-0.22;73.31
53874;BME280;62246;50.938;4.058;2022-12-13T14:30:20;100860.75;;;-0.47;73.90
53874;BME280;62246;50.938;4.058;2022-12-13T14:32:47;100866.72;;;-0.44;74.11
53874;BME280;62246;50.938;4.058;2022-12-13T14:35:26;100864.22;;;-0.47;74.83
53874;BME280;62246;50.938;4.058;2022-12-13T14:38:04;100860.94;;;-0.54;74.89
53874;BME280;62246;50.938;4.058;2022-12-13T14:40:32;100858.44;;;-0.57;74.08
53874;BME280;62246;50.938;4.058;2022-12-13T14:43:01;100860.31;;;-0.62;74.40
53874;BME280;62246;50.938;4.058;2022-12-13T14:45:33;100861.28;;;-0.66;74.17
53874;BME280;62246;50.938;4.058;2022-12-13T14:48:03;100858.78;;;-0.71;74.06
53874;BME280;62246;50.938;4.058;2022-12-13T14:50:32;100863.06;;;-0.68;74.28
53874;BME280;62246;50.938;4.058;2022-12-13T14:52:59;100876.16;;;-0.71;74.92
53874;BME280;62246;50.938;4.058;2022-12-13T14:55:33;100867.00;;;-0.85;74.47
53874;BME280;62246;50.938;4.058;2022-12-13T14:58:15;100872.50;;;-0.97;75.48
53874;BME280;62246;50.938;4.058;2022-12-13T15:00:41;100876.03;;;-0.99;75.81